Time;durP1;ratioP1;P1;durP2;ratioP2;P2;SDS_P1;SDS_P2;PMS_P1;PMS_P2;Temp;Humidity;BMP_temperature;BMP_pressure;BME280_temperature;BME280_humidity;BME280_pressure;Samples;Min_cycle;Max_cycle;Signal;HPM_P1;HPM_P2
2023/05/29 00:02:20;;;;;;;6.03;3.70;;;;;;;;;;5082267;28;20214;-72
2023/05/29 00:04:47;;;;;;;5.77;3.43;;;;;;;;;;5083143;28;20185;-72
2023/05/29 00:07:13;;;;;;;4.47;3.07;;;;;;;;;;5078114;28;20211;-72
2023/05/29 00:09:39;;;;;;;9.57;3.80;;;;;;;;;;5079069;28;20193;-72
2023/05/29 00:12:05;;;;;;;7.83;3.53;;;;;;;;;;5078469;28;20268;-72
2023/05/29 00:14:31;;;;;;;8.03;3.57;;;;;;;;;;5080495;28;20671;-72
2023/05/29 00:16:57;;;;;;;5.90;3.30;;;;;;;;;;5079034;28;20219;-71
2023/05/29 00:19:24;;;;;;;5.47;3.30;;;;;;;;;;5081196;28;20220;-71
2023/05/29 00:21:51;;;;;;;4.83;3.50;;;;;;;;;;5079662;28;20201;-72
2023/05/29 00:24:17;;;;;;;9.50;3.57;;;;;;;;;;5078946;28;20199;-72
2023/05/29 00:26:43;;;;;;;6.77;3.37;;;;;;;;;;5078484;28;20263;-71
2023/05/29 00:29:10;;;;;;;5.07;3.40;;;;;;;;;;5080563;28;20216;-72
2023/05/29 00:31:36;;;;;;;12.33;3.70;;;;;;;;;;5074628;28;20181;-72
2023/05/29 00:34:02;;;;;;;5.83;3.40;;;;;;;;;;5081941;28;20251;-72
2023/05/29 00:36:29;;;;;;;13.87;3.83;;;;;;;;;;5087864;28;20179;-72
2023/05/29 00:38:55;;;;;;;5.20;3.23;;;;;;;;;;5081618;28;20699;-72
2023/05/29 00:41:21;;;;;;;6.50;3.30;;;;;;;;;;5083104;28;20211;-72
2023/05/29 00:43:47;;;;;;;4.27;3.00;;;;;;;;;;5090798;28;20555;-72
2023/05/29 00:46:14;;;;;;;8.13;3.77;;;;;;;;;;5086181;28;20173;-72
2023/05/29 00:48:42;;;;;;;5.37;3.63;;;;;;;;;;5084252;28;20244;-72
2023/05/29 00:51:09;;;;;;;5.87;3.60;;;;;;;;;;5077125;28;20181;-72
2023/05/29 00:53:35;;;;;;;6.77;3.37;;;;;;;;;;5078714;28;20191;-72
2023/05/29 00:56:02;;;;;;;5.60;3.33;;;;;;;;;;5083833;28;20183;-72
2023/05/29 00:58:28;;;;;;;4.47;3.20;;;;;;;;;;5079819;28;20559;-72
2023/05/29 01:00:54;;;;;;;5.00;3.27;;;;;;;;;;5079621;28;20193;-72
2023/05/29 01:03:22;;;;;;;5.13;3.17;;;;;;;;;;5094691;28;20192;-72
2023/05/29 01:05:49;;;;;;;5.33;3.40;;;;;;;;;;5083668;28;20231;-72
2023/05/29 01:08:15;;;;;;;5.17;3.43;;;;;;;;;;5092150;28;20748;-72
2023/05/29 01:10:42;;;;;;;6.17;3.30;;;;;;;;;;5092232;28;20172;-71
2023/05/29 01:13:23;;;;;;;5.03;3.10;;;;;;;;;;5084379;28;20180;-72
2023/05/29 01:15:50;;;;;;;5.33;3.30;;;;;;;;;;5092047;28;20529;-72
2023/05/29 01:18:17;;;;;;;6.27;3.33;;;;;;;;;;5096116;28;20213;-72
2023/05/29 01:20:48;;;;;;;6.60;3.33;;;;;;;;;;5094337;28;20665;-71
2023/05/29 01:23:14;;;;;;;6.30;3.30;;;;;;;;;;5078683;28;20188;-71
2023/05/29 01:25:55;;;;;;;8.53;3.40;;;;;;;;;;5078504;28;20271;-72
2023/05/29 01:28:23;;;;;;;5.83;3.00;;;;;;;;;;5088346;28;20212;-72
2023/05/29 01:30:51;;;;;;;5.50;3.00;;;;;;;;;;5088871;28;20172;-72
2023/05/29 01:33:18;;;;;;;5.63;3.20;;;;;;;;;;5071688;28;20177;-71
2023/05/29 01:35:44;;;;;;;4.93;3.23;;;;;;;;;;5077003;28;20548;-72
2023/05/29 01:38:10;;;;;;;5.47;2.80;;;;;;;;;;5078722;28;20259;-72
2023/05/29 01:40:36;;;;;;;6.20;3.23;;;;;;;;;;5077070;28;20177;-71
2023/05/29 01:43:03;;;;;;;5.87;3.30;;;;;;;;;;5075979;28;20216;-71
2023/05/29 01:45:30;;;;;;;4.17;2.73;;;;;;;;;;5074881;28;20181;-71
2023/05/29 01:47:56;;;;;;;5.37;3.30;;;;;;;;;;5080103;28;20784;-71
2023/05/29 01:50:24;;;;;;;4.03;3.07;;;;;;;;;;5077092;28;20188;-71
2023/05/29 01:52:50;;;;;;;5.20;3.10;;;;;;;;;;5078598;28;20184;-71
2023/05/29 01:55:17;;;;;;;4.50;3.10;;;;;;;;;;5082586;28;20184;-72
2023/05/29 01:57:44;;;;;;;4.37;3.27;;;;;;;;;;5076243;28;20200;-70
2023/05/29 02:00:10;;;;;;;4.37;2.90;;;;;;;;;;5084660;28;20204;-72
2023/05/29 02:02:42;;;;;;;3.90;3.20;;;;;;;;;;5079478;28;20295;-71
2023/05/29 02:05:09;;;;;;;4.00;3.20;;;;;;;;;;5073716;28;20173;-71
2023/05/29 02:07:38;;;;;;;5.27;3.20;;;;;;;;;;5075945;28;20173;-71
2023/05/29 02:10:05;;;;;;;4.27;2.93;;;;;;;;;;5081714;28;20230;-71
2023/05/29 02:12:31;;;;;;;5.30;3.00;;;;;;;;;;5077757;28;20268;-71
2023/05/29 02:14:58;;;;;;;5.23;3.33;;;;;;;;;;5076652;28;20184;-71
2023/05/29 02:17:25;;;;;;;4.53;3.17;;;;;;;;;;5082095;28;20236;-71
2023/05/29 02:19:52;;;;;;;4.03;3.20;;;;;;;;;;5080043;28;20188;-71
2023/05/29 02:22:18;;;;;;;4.57;3.00;;;;;;;;;;5083143;28;20584;-71
2023/05/29 02:24:44;;;;;;;5.50;3.40;;;;;;;;;;5081338;28;20181;-71
2023/05/29 02:27:10;;;;;;;4.63;3.27;;;;;;;;;;5080417;28;20800;-71
2023/05/29 02:29:37;;;;;;;3.63;2.90;;;;;;;;;;5085004;28;20228;-71
2023/05/29 02:32:04;;;;;;;6.00;3.23;;;;;;;;;;5092358;28;20186;-71
2023/05/29 02:34:33;;;;;;;5.07;3.10;;;;;;;;;;5089348;28;20583;-71
2023/05/29 02:36:59;;;;;;;4.50;3.23;;;;;;;;;;5080140;28;20203;-71
2023/05/29 02:39:26;;;;;;;5.03;3.03;;;;;;;;;;5092218;28;20200;-71
2023/05/29 02:41:53;;;;;;;5.43;3.07;;;;;;;;;;5098884;28;20234;-71
2023/05/29 02:44:19;;;;;;;4.00;3.07;;;;;;;;;;5099629;28;20652;-71
2023/05/29 02:46:46;;;;;;;4.20;3.10;;;;;;;;;;5090747;28;20276;-71
2023/05/29 02:49:12;;;;;;;4.93;3.20;;;;;;;;;;5082140;28;20224;-71
2023/05/29 02:51:38;;;;;;;4.47;3.20;;;;;;;;;;5081903;28;20609;-71
2023/05/29 02:54:04;;;;;;;5.03;3.07;;;;;;;;;;5096115;28;20728;-71
2023/05/29 02:56:30;;;;;;;4.93;3.20;;;;;;;;;;5091950;28;20263;-71
2023/05/29 02:58:56;;;;;;;4.43;2.97;;;;;;;;;;5099248;28;20214;-71
2023/05/29 03:01:23;;;;;;;3.70;3.17;;;;;;;;;;5096198;28;20209;-71
2023/05/29 03:03:49;;;;;;;5.63;3.10;;;;;;;;;;5090509;28;20196;-71
2023/05/29 03:06:17;;;;;;;4.90;3.03;;;;;;;;;;5082024;28;20254;-71
2023/05/29 03:08:44;;;;;;;5.07;3.30;;;;;;;;;;5092783;28;20204;-71
2023/05/29 03:11:15;;;;;;;5.07;3.00;;;;;;;;;;5097925;28;20183;-71
2023/05/29 03:13:41;;;;;;;5.03;3.00;;;;;;;;;;5093624;28;20195;-71
2023/05/29 03:16:10;;;;;;;4.30;3.00;;;;;;;;;;5095276;28;20177;-71
2023/05/29 03:18:37;;;;;;;3.83;2.70;;;;;;;;;;5100669;28;20699;-71
2023/05/29 03:21:04;;;;;;;4.57;3.13;;;;;;;;;;5085481;28;20189;-71
2023/05/29 03:23:33;;;;;;;4.83;3.30;;;;;;;;;;5099997;28;20176;-71
2023/05/29 03:25:59;;;;;;;5.87;3.37;;;;;;;;;;5086895;28;20547;-71
2023/05/29 03:28:25;;;;;;;5.83;3.60;;;;;;;;;;5100290;28;20303;-71
2023/05/29 03:30:53;;;;;;;5.50;3.70;;;;;;;;;;5085771;28;20644;-71
2023/05/29 03:33:21;;;;;;;3.87;3.20;;;;;;;;;;5088567;28;20184;-71
2023/05/29 03:36:00;;;;;;;4.10;3.40;;;;;;;;;;5090546;28;20640;-71
2023/05/29 03:38:28;;;;;;;4.80;3.20;;;;;;;;;;5082836;28;20210;-71
2023/05/29 03:40:57;;;;;;;3.47;2.80;;;;;;;;;;5088423;28;20262;-71
2023/05/29 03:43:23;;;;;;;5.67;3.10;;;;;;;;;;5092796;28;20643;-71
2023/05/29 03:45:49;;;;;;;6.07;3.70;;;;;;;;;;5086041;28;20181;-71
2023/05/29 03:48:16;;;;;;;6.53;3.27;;;;;;;;;;5085290;28;20204;-71
2023/05/29 03:50:45;;;;;;;5.30;3.70;;;;;;;;;;5088750;28;20182;-71
2023/05/29 03:53:11;;;;;;;5.70;3.47;;;;;;;;;;5078688;28;20697;-71
2023/05/29 03:55:38;;;;;;;5.10;3.30;;;;;;;;;;5101325;28;20266;-71
2023/05/29 03:58:07;;;;;;;6.67;3.40;;;;;;;;;;5087496;28;20699;-70
2023/05/29 04:00:33;;;;;;;4.37;3.20;;;;;;;;;;5079658;28;20217;-70
2023/05/29 04:03:02;;;;;;;5.80;3.40;;;;;;;;;;5086978;28;20258;-71
2023/05/29 04:05:28;;;;;;;6.03;3.30;;;;;;;;;;5105252;28;20548;-71
2023/05/29 04:07:54;;;;;;;4.97;3.30;;;;;;;;;;5094492;28;20199;-71
2023/05/29 04:10:21;;;;;;;3.63;3.00;;;;;;;;;;5089490;28;20177;-71
2023/05/29 04:12:47;;;;;;;5.73;3.70;;;;;;;;;;5102413;28;20188;-72
2023/05/29 04:15:13;;;;;;;5.77;3.43;;;;;;;;;;5093281;28;20180;-72
2023/05/29 04:17:39;;;;;;;6.70;3.60;;;;;;;;;;5091169;28;20546;-71
2023/05/29 04:20:08;;;;;;;6.27;3.43;;;;;;;;;;5089997;28;20177;-72
2023/05/29 04:22:38;;;;;;;5.70;3.70;;;;;;;;;;5070433;28;20224;-71
2023/05/29 04:25:05;;;;;;;4.77;3.67;;;;;;;;;;5070911;28;20656;-69
2023/05/29 04:27:38;;;;;;;5.83;4.03;;;;;;;;;;5090780;28;20176;-71
2023/05/29 04:30:06;;;;;;;4.93;3.50;;;;;;;;;;5087326;28;20263;-71
2023/05/29 04:32:36;;;;;;;4.50;3.77;;;;;;;;;;5089136;28;20185;-71
2023/05/29 04:35:03;;;;;;;5.67;4.33;;;;;;;;;;5090545;28;20533;-71
2023/05/29 04:37:36;;;;;;;5.43;3.67;;;;;;;;;;5089883;28;20184;-71
2023/05/29 04:40:10;;;;;;;7.60;3.73;;;;;;;;;;5069682;28;20196;-71
2023/05/29 04:42:37;;;;;;;6.03;3.33;;;;;;;;;;5090289;28;20253;-71
2023/05/29 04:45:05;;;;;;;6.13;3.50;;;;;;;;;;5092496;28;20177;-71
2023/05/29 04:47:32;;;;;;;4.63;3.60;;;;;;;;;;5097339;28;20180;-71
2023/05/29 04:50:02;;;;;;;7.70;4.20;;;;;;;;;;5094101;28;20188;-70
2023/05/29 04:52:28;;;;;;;4.60;3.80;;;;;;;;;;5091604;28;20195;-71
2023/05/29 04:54:56;;;;;;;4.73;3.70;;;;;;;;;;5095410;28;20268;-74
2023/05/29 04:57:22;;;;;;;4.90;3.70;;;;;;;;;;5091108;28;20187;-74
2023/05/29 04:59:50;;;;;;;7.30;3.83;;;;;;;;;;5087067;28;20688;-71
2023/05/29 05:02:16;;;;;;;6.80;3.90;;;;;;;;;;5094271;28;20205;-71
2023/05/29 05:04:42;;;;;;;7.30;4.00;;;;;;;;;;5089670;28;20671;-71
2023/05/29 05:07:10;;;;;;;5.27;4.13;;;;;;;;;;5077120;28;20184;-71
2023/05/29 05:09:37;;;;;;;7.63;3.73;;;;;;;;;;5061054;28;20534;-72
2023/05/29 05:12:03;;;;;;;5.70;3.77;;;;;;;;;;5078074;28;20204;-70
2023/05/29 05:14:30;;;;;;;5.43;3.63;;;;;;;;;;5109618;27;20180;-70
2023/05/29 05:16:56;;;;;;;7.53;3.80;;;;;;;;;;5094820;28;20230;-71
2023/05/29 05:19:22;;;;;;;5.50;3.50;;;;;;;;;;5085406;28;20243;-71
2023/05/29 05:21:48;;;;;;;5.07;3.47;;;;;;;;;;5083237;28;20279;-71
2023/05/29 05:24:15;;;;;;;6.30;3.90;;;;;;;;;;5075579;28;20256;-74
2023/05/29 05:26:41;;;;;;;6.00;3.80;;;;;;;;;;5077315;28;20173;-74
2023/05/29 05:29:07;;;;;;;6.97;3.80;;;;;;;;;;5077577;28;20197;-71
2023/05/29 05:31:36;;;;;;;6.77;4.10;;;;;;;;;;5093207;28;20181;-71
2023/05/29 05:34:02;;;;;;;6.57;4.20;;;;;;;;;;5096874;28;20188;-71
2023/05/29 05:36:28;;;;;;;7.03;4.13;;;;;;;;;;5082344;28;20625;-71
2023/05/29 05:39:01;;;;;;;6.37;3.90;;;;;;;;;;5068071;28;20207;-71
2023/05/29 05:41:27;;;;;;;5.80;3.73;;;;;;;;;;5076195;28;20204;-71
2023/05/29 05:43:54;;;;;;;8.13;4.20;;;;;;;;;;5075583;28;20236;-71
2023/05/29 05:46:29;;;;;;;5.53;3.70;;;;;;;;;;5074234;28;21006;-70
2023/05/29 05:48:57;;;;;;;5.70;4.17;;;;;;;;;;5075633;28;20193;-71
2023/05/29 05:51:23;;;;;;;6.53;4.07;;;;;;;;;;5058092;28;20200;-71
2023/05/29 05:53:50;;;;;;;7.23;4.10;;;;;;;;;;5077643;28;20269;-71
2023/05/29 05:56:17;;;;;;;5.73;3.97;;;;;;;;;;5093593;28;20679;-71
2023/05/29 05:58:44;;;;;;;8.43;3.90;;;;;;;;;;5091392;28;20200;-71
2023/05/29 06:01:11;;;;;;;7.03;4.00;;;;;;;;;;5087553;28;20242;-71
2023/05/29 06:03:37;;;;;;;6.57;3.80;;;;;;;;;;5097950;28;20295;-71
2023/05/29 06:06:08;;;;;;;5.27;3.83;;;;;;;;;;5111746;28;20181;-71
2023/05/29 06:08:35;;;;;;;6.37;3.70;;;;;;;;;;5087983;28;20585;-71
2023/05/29 06:11:02;;;;;;;4.27;3.47;;;;;;;;;;5085876;28;20202;-71
2023/05/29 06:13:29;;;;;;;6.73;3.70;;;;;;;;;;5088992;28;20176;-71
2023/05/29 06:16:02;;;;;;;5.63;3.73;;;;;;;;;;5077481;28;20179;-71
2023/05/29 06:18:29;;;;;;;5.83;3.60;;;;;;;;;;5084613;28;20734;-71
2023/05/29 06:20:56;;;;;;;5.40;3.40;;;;;;;;;;5087144;28;20254;-71
2023/05/29 06:23:22;;;;;;;5.67;3.50;;;;;;;;;;5104236;28;20650;-71
2023/05/29 06:25:49;;;;;;;4.80;3.30;;;;;;;;;;5093025;28;20702;-71
2023/05/29 06:28:16;;;;;;;4.43;3.80;;;;;;;;;;5094827;28;20197;-72
2023/05/29 06:30:42;;;;;;;5.70;3.50;;;;;;;;;;5081061;28;20187;-70
2023/05/29 06:33:08;;;;;;;4.77;3.40;;;;;;;;;;5081662;28;20283;-71
2023/05/29 06:35:37;;;;;;;4.70;3.50;;;;;;;;;;5096348;28;20194;-71
2023/05/29 06:38:04;;;;;;;5.80;3.80;;;;;;;;;;5097454;28;20687;-72
2023/05/29 06:40:33;;;;;;;4.93;3.60;;;;;;;;;;5080781;28;20326;-71
2023/05/29 06:43:00;;;;;;;6.13;3.73;;;;;;;;;;5086267;28;20199;-71
2023/05/29 06:45:38;;;;;;;5.77;3.50;;;;;;;;;;5075657;28;20176;-71
2023/05/29 06:48:05;;;;;;;5.33;3.50;;;;;;;;;;5092529;28;20607;-70
2023/05/29 06:50:32;;;;;;;5.37;3.53;;;;;;;;;;5049996;28;20185;-72
2023/05/29 06:53:05;;;;;;;6.80;3.50;;;;;;;;;;5076353;28;20183;-72
2023/05/29 06:55:43;;;;;;;6.17;3.77;;;;;;;;;;5083621;28;20197;-72
2023/05/29 06:58:09;;;;;;;4.70;3.60;;;;;;;;;;5084650;28;20266;-72
2023/05/29 07:00:35;;;;;;;4.07;3.10;;;;;;;;;;5098010;28;20361;-75
2023/05/29 07:03:37;;;;;;;6.17;3.30;;;;;;;;;;5086517;28;20203;-72
2023/05/29 07:06:06;;;;;;;4.50;3.20;;;;;;;;;;5089508;28;20631;-71
2023/05/29 07:08:32;;;;;;;6.57;3.10;;;;;;;;;;5091848;28;20208;-71
2023/05/29 07:10:59;;;;;;;6.97;3.50;;;;;;;;;;5094417;28;20177;-71
2023/05/29 07:13:27;;;;;;;9.33;3.70;;;;;;;;;;5095222;28;20913;-71
2023/05/29 07:15:53;;;;;;;5.33;3.53;;;;;;;;;;5092760;28;20203;-71
2023/05/29 07:18:25;;;;;;;4.60;3.50;;;;;;;;;;5086218;28;20639;-71
2023/05/29 07:20:51;;;;;;;4.10;3.00;;;;;;;;;;5099116;28;20176;-71
2023/05/29 07:23:19;;;;;;;5.33;3.50;;;;;;;;;;5101920;28;20287;-71
2023/05/29 07:25:46;;;;;;;5.80;3.10;;;;;;;;;;5101559;28;20185;-71
2023/05/29 07:28:12;;;;;;;3.53;3.00;;;;;;;;;;5095489;28;20208;-71
2023/05/29 07:30:38;;;;;;;5.27;3.50;;;;;;;;;;5082084;28;20200;-71
2023/05/29 07:33:06;;;;;;;4.17;3.03;;;;;;;;;;5085140;28;20255;-71
2023/05/29 07:35:33;;;;;;;4.07;3.10;;;;;;;;;;5074119;28;20260;-71
2023/05/29 07:38:00;;;;;;;8.23;3.53;;;;;;;;;;5071863;28;20203;-71
2023/05/29 07:40:26;;;;;;;4.27;3.30;;;;;;;;;;5072206;28;20231;-71
2023/05/29 07:42:59;;;;;;;5.60;3.53;;;;;;;;;;5086733;28;20201;-71
2023/05/29 07:45:35;;;;;;;6.27;3.70;;;;;;;;;;5081197;28;20600;-72
2023/05/29 07:48:01;;;;;;;4.30;3.57;;;;;;;;;;5077952;28;20193;-71
2023/05/29 07:50:29;;;;;;;7.87;3.80;;;;;;;;;;5078702;28;20648;-72
2023/05/29 07:52:56;;;;;;;6.53;3.47;;;;;;;;;;5085513;28;20196;-71
2023/05/29 07:55:22;;;;;;;6.70;3.73;;;;;;;;;;5094776;28;20181;-71
2023/05/29 07:57:48;;;;;;;4.43;3.50;;;;;;;;;;5088619;28;20619;-71
2023/05/29 08:00:15;;;;;;;4.70;3.17;;;;;;;;;;5074388;28;20175;-71
2023/05/29 08:02:47;;;;;;;6.00;3.47;;;;;;;;;;5085989;28;20650;-71
2023/05/29 08:05:32;;;;;;;4.67;3.50;;;;;;;;;;5084145;28;20650;-71
2023/05/29 08:08:01;;;;;;;6.73;3.70;;;;;;;;;;5094521;28;20214;-72
2023/05/29 08:10:27;;;;;;;4.70;3.40;;;;;;;;;;5087595;28;20177;-71
2023/05/29 08:12:54;;;;;;;4.43;3.67;;;;;;;;;;5077450;28;20183;-75
2023/05/29 08:15:20;;;;;;;4.30;3.53;;;;;;;;;;5083472;28;20204;-72
2023/05/29 08:17:47;;;;;;;4.80;3.60;;;;;;;;;;5086484;28;20240;-72
2023/05/29 08:20:13;;;;;;;5.20;3.50;;;;;;;;;;5094566;28;20611;-72
2023/05/29 08:22:39;;;;;;;6.47;3.80;;;;;;;;;;5076859;28;20584;-72
2023/05/29 08:25:05;;;;;;;5.93;3.93;;;;;;;;;;5089527;28;20219;-72
2023/05/29 08:27:32;;;;;;;6.43;3.60;;;;;;;;;;5084262;28;20183;-71
2023/05/29 08:29:58;;;;;;;5.17;3.57;;;;;;;;;;5096670;28;20168;-72
2023/05/29 08:32:24;;;;;;;9.53;3.80;;;;;;;;;;5080415;28;20284;-72
2023/05/29 08:34:50;;;;;;;5.13;3.67;;;;;;;;;;5088852;28;20937;-72
2023/05/29 08:37:17;;;;;;;4.27;3.40;;;;;;;;;;5094924;28;20196;-73
2023/05/29 08:39:43;;;;;;;6.30;3.33;;;;;;;;;;5084945;28;20298;-71
2023/05/29 08:42:22;;;;;;;5.57;3.70;;;;;;;;;;5083635;28;20303;-72
2023/05/29 08:44:54;;;;;;;6.07;3.40;;;;;;;;;;5091564;28;20267;-71
2023/05/29 08:47:21;;;;;;;4.07;3.00;;;;;;;;;;5090510;28;20197;-71
2023/05/29 08:49:53;;;;;;;8.23;3.80;;;;;;;;;;5085627;28;20208;-72
2023/05/29 08:52:25;;;;;;;5.90;3.43;;;;;;;;;;5082642;28;20246;-72
2023/05/29 08:54:52;;;;;;;3.80;3.40;;;;;;;;;;5096969;28;20173;-71
2023/05/29 08:57:18;;;;;;;6.60;3.70;;;;;;;;;;5078665;28;20279;-72
2023/05/29 08:59:45;;;;;;;5.10;3.50;;;;;;;;;;5085542;28;20212;-72
2023/05/29 09:02:11;;;;;;;5.33;3.50;;;;;;;;;;5079453;28;20212;-72
2023/05/29 09:04:41;;;;;;;6.23;3.67;;;;;;;;;;5081581;28;20687;-72
2023/05/29 09:07:08;;;;;;;6.13;3.63;;;;;;;;;;5087301;28;20215;-74
2023/05/29 09:09:34;;;;;;;7.67;3.70;;;;;;;;;;5066696;28;20207;-73
2023/05/29 09:12:02;;;;;;;6.83;3.57;;;;;;;;;;5079041;28;20189;-73
2023/05/29 09:14:35;;;;;;;7.57;3.43;;;;;;;;;;5089251;28;20588;-73
2023/05/29 09:17:03;;;;;;;4.87;3.10;;;;;;;;;;5086294;28;20193;-73
2023/05/29 09:19:29;;;;;;;5.87;3.63;;;;;;;;;;5080351;28;20691;-74
2023/05/29 09:22:05;;;;;;;8.57;3.97;;;;;;;;;;5084097;28;20208;-73
2023/05/29 09:24:32;;;;;;;5.83;3.43;;;;;;;;;;5085008;28;20177;-74
2023/05/29 09:27:02;;;;;;;5.90;3.70;;;;;;;;;;5086342;28;20192;-73
2023/05/29 09:29:32;;;;;;;6.97;3.50;;;;;;;;;;5082314;28;20204;-73
2023/05/29 09:31:59;;;;;;;6.20;3.80;;;;;;;;;;5073500;28;20196;-73
2023/05/29 09:34:29;;;;;;;4.83;3.50;;;;;;;;;;5083769;28;20303;-73
2023/05/29 09:37:07;;;;;;;5.20;3.50;;;;;;;;;;5081583;28;20234;-73
2023/05/29 09:39:34;;;;;;;5.07;3.70;;;;;;;;;;5084793;28;20224;-73
2023/05/29 09:42:01;;;;;;;4.93;3.30;;;;;;;;;;5083420;28;20216;-74
2023/05/29 09:44:28;;;;;;;4.20;3.10;;;;;;;;;;5084959;28;20184;-73
2023/05/29 09:46:58;;;;;;;5.07;3.50;;;;;;;;;;5086637;28;20201;-73
2023/05/29 09:49:26;;;;;;;4.53;3.20;;;;;;;;;;5085861;28;20228;-73
2023/05/29 09:51:56;;;;;;;6.83;3.63;;;;;;;;;;5082697;28;20190;-73
2023/05/29 09:54:22;;;;;;;5.83;3.47;;;;;;;;;;5087984;28;20252;-73
2023/05/29 09:56:48;;;;;;;4.50;3.60;;;;;;;;;;5081220;28;20193;-73
2023/05/29 09:59:17;;;;;;;4.70;3.43;;;;;;;;;;5079432;28;20300;-74
2023/05/29 10:01:44;;;;;;;4.90;3.60;;;;;;;;;;5082643;28;20271;-75
2023/05/29 10:04:10;;;;;;;6.37;3.60;;;;;;;;;;5080281;28;20282;-74
2023/05/29 10:06:38;;;;;;;8.03;3.70;;;;;;;;;;5086461;28;20220;-73
2023/05/29 10:09:07;;;;;;;4.53;3.63;;;;;;;;;;5091071;28;20319;-73
2023/05/29 10:11:34;;;;;;;6.13;3.40;;;;;;;;;;5080010;28;20197;-73
2023/05/29 10:14:02;;;;;;;5.37;3.67;;;;;;;;;;5082926;28;20201;-73
2023/05/29 10:16:29;;;;;;;5.00;3.47;;;;;;;;;;5075077;28;20581;-73
2023/05/29 10:18:56;;;;;;;4.67;3.27;;;;;;;;;;5077628;28;20203;-73
2023/05/29 10:21:22;;;;;;;4.50;3.37;;;;;;;;;;5086511;28;20176;-73
2023/05/29 10:23:49;;;;;;;7.20;3.67;;;;;;;;;;5077095;28;20547;-74
2023/05/29 10:26:21;;;;;;;5.73;3.80;;;;;;;;;;5072490;28;20173;-74
2023/05/29 10:28:51;;;;;;;5.47;3.53;;;;;;;;;;5089939;28;20667;-77
2023/05/29 10:31:21;;;;;;;3.90;3.50;;;;;;;;;;5091332;28;20253;-75
2023/05/29 10:33:53;;;;;;;4.87;3.30;;;;;;;;;;5073966;28;20204;-77
2023/05/29 10:36:21;;;;;;;4.27;3.47;;;;;;;;;;5089337;28;20174;-75
2023/05/29 10:38:48;;;;;;;3.90;3.20;;;;;;;;;;5098329;28;20204;-75
2023/05/29 10:41:39;;;;;;;4.83;3.60;;;;;;;;;;5087300;28;20651;-75
2023/05/29 10:44:25;;;;;;;5.20;3.30;;;;;;;;;;5088015;28;20603;-74
2023/05/29 10:46:51;;;;;;;4.83;3.70;;;;;;;;;;5086188;28;20184;-74
2023/05/29 10:49:19;;;;;;;4.30;3.10;;;;;;;;;;5083939;28;20194;-73
2023/05/29 10:51:45;;;;;;;4.50;3.73;;;;;;;;;;5087577;28;20188;-73
2023/05/29 10:54:11;;;;;;;4.63;3.20;;;;;;;;;;5103630;28;20300;-73
2023/05/29 10:56:38;;;;;;;5.17;3.67;;;;;;;;;;5095873;28;20276;-73
2023/05/29 10:59:04;;;;;;;8.77;3.97;;;;;;;;;;5095946;28;20200;-73
2023/05/29 11:01:31;;;;;;;4.97;3.53;;;;;;;;;;5079105;28;20217;-74
2023/05/29 11:04:15;;;;;;;5.90;3.30;;;;;;;;;;5083914;28;20201;-73
2023/05/29 11:06:42;;;;;;;5.07;3.87;;;;;;;;;;5085671;28;20177;-73
2023/05/29 11:09:28;;;;;;;5.17;3.57;;;;;;;;;;5086906;28;20207;-73
2023/05/29 11:12:11;;;;;;;4.60;3.50;;;;;;;;;;5096638;28;20197;-73
2023/05/29 11:14:56;;;;;;;5.37;3.50;;;;;;;;;;5088931;28;20176;-73
2023/05/29 11:17:29;;;;;;;4.33;3.40;;;;;;;;;;5098803;28;20234;-73
2023/05/29 11:19:57;;;;;;;6.07;3.43;;;;;;;;;;5095043;28;20208;-75
2023/05/29 11:22:27;;;;;;;9.47;3.47;;;;;;;;;;5094484;28;20204;-75
2023/05/29 11:24:54;;;;;;;5.57;3.43;;;;;;;;;;5093305;28;20180;-74
2023/05/29 11:27:20;;;;;;;4.93;3.20;;;;;;;;;;5094606;28;20180;-74
2023/05/29 11:29:48;;;;;;;5.50;3.80;;;;;;;;;;5087986;28;20205;-75
2023/05/29 11:32:17;;;;;;;6.03;3.57;;;;;;;;;;5087605;28;20191;-74
2023/05/29 11:34:45;;;;;;;6.63;3.90;;;;;;;;;;5088148;28;20226;-75
2023/05/29 11:37:12;;;;;;;6.67;3.67;;;;;;;;;;5088917;28;20249;-73
2023/05/29 11:39:38;;;;;;;5.87;3.60;;;;;;;;;;5090136;28;20220;-73
2023/05/29 11:42:05;;;;;;;5.90;3.93;;;;;;;;;;5075979;28;20290;-72
2023/05/29 11:44:31;;;;;;;4.13;3.50;;;;;;;;;;5086781;28;20264;-73
2023/05/29 11:47:02;;;;;;;5.50;3.57;;;;;;;;;;5084090;28;20209;-72
2023/05/29 11:49:30;;;;;;;4.70;3.50;;;;;;;;;;5079016;28;20193;-73
2023/05/29 11:52:06;;;;;;;3.87;3.20;;;;;;;;;;5084146;28;20272;-73
2023/05/29 11:54:34;;;;;;;30.63;4.80;;;;;;;;;;5088818;28;20186;-73
2023/05/29 11:57:01;;;;;;;3.87;3.47;;;;;;;;;;5077857;28;20565;-73
2023/05/29 11:59:30;;;;;;;3.77;3.27;;;;;;;;;;5080762;28;20206;-74
2023/05/29 12:02:02;;;;;;;4.43;3.20;;;;;;;;;;5067191;28;20262;-74
2023/05/29 12:04:29;;;;;;;3.50;2.87;;;;;;;;;;5088216;28;20180;-73
2023/05/29 12:06:55;;;;;;;4.20;3.53;;;;;;;;;;5084378;28;20585;-73
2023/05/29 12:09:26;;;;;;;4.43;3.37;;;;;;;;;;5088489;28;20192;-73
2023/05/29 12:11:52;;;;;;;4.83;3.20;;;;;;;;;;5097412;28;20681;-73
2023/05/29 12:14:19;;;;;;;4.73;3.27;;;;;;;;;;5087896;28;20264;-73
2023/05/29 12:16:45;;;;;;;4.73;3.33;;;;;;;;;;5083450;28;20248;-73
2023/05/29 12:19:12;;;;;;;4.27;3.20;;;;;;;;;;5080789;28;20208;-73
2023/05/29 12:21:42;;;;;;;3.97;3.60;;;;;;;;;;5088206;28;20211;-73
2023/05/29 12:24:08;;;;;;;3.77;3.30;;;;;;;;;;5085442;28;20182;-75
2023/05/29 12:26:36;;;;;;;7.10;3.50;;;;;;;;;;5089058;28;20308;-74
2023/05/29 12:29:05;;;;;;;3.33;2.70;;;;;;;;;;5096400;28;20196;-73
2023/05/29 12:31:31;;;;;;;4.60;3.00;;;;;;;;;;5077898;28;20185;-73
2023/05/29 12:34:01;;;;;;;3.50;3.00;;;;;;;;;;5086451;28;20184;-73
2023/05/29 12:36:27;;;;;;;3.90;3.00;;;;;;;;;;5088342;28;20187;-73
2023/05/29 12:38:54;;;;;;;4.23;3.10;;;;;;;;;;5081348;28;20207;-74
2023/05/29 12:41:26;;;;;;;4.47;3.30;;;;;;;;;;5083673;28;20184;-74
2023/05/29 12:43:56;;;;;;;4.90;3.60;;;;;;;;;;5094334;28;20643;-74
2023/05/29 12:46:22;;;;;;;3.80;3.10;;;;;;;;;;5101167;28;20186;-74
2023/05/29 12:48:49;;;;;;;3.50;3.17;;;;;;;;;;5103335;28;20206;-74
2023/05/29 12:51:18;;;;;;;4.80;3.20;;;;;;;;;;5082446;28;20186;-74
2023/05/29 12:53:44;;;;;;;3.07;2.77;;;;;;;;;;5081406;28;20810;-74
2023/05/29 12:56:10;;;;;;;5.30;3.23;;;;;;;;;;5093320;28;20229;-74
2023/05/29 12:58:36;;;;;;;4.60;3.20;;;;;;;;;;5091779;28;20624;-74
2023/05/29 13:01:03;;;;;;;4.07;3.33;;;;;;;;;;5092746;28;20247;-74
2023/05/29 13:03:29;;;;;;;4.33;3.30;;;;;;;;;;5099840;28;20209;-74
2023/05/29 13:05:56;;;;;;;6.07;3.37;;;;;;;;;;5086957;28;20679;-74
2023/05/29 13:08:22;;;;;;;3.50;3.17;;;;;;;;;;5088717;28;20287;-75
2023/05/29 13:10:48;;;;;;;5.80;3.40;;;;;;;;;;5078829;28;20662;-74
2023/05/29 13:13:14;;;;;;;4.20;3.40;;;;;;;;;;5086589;28;20233;-74
2023/05/29 13:15:40;;;;;;;3.80;3.10;;;;;;;;;;5088516;28;20232;-74
2023/05/29 13:18:07;;;;;;;3.30;3.00;;;;;;;;;;5091115;28;20205;-74
2023/05/29 13:20:33;;;;;;;3.63;3.20;;;;;;;;;;5088040;28;20176;-75
2023/05/29 13:22:59;;;;;;;4.40;3.20;;;;;;;;;;5079113;28;20748;-74
2023/05/29 13:25:25;;;;;;;4.83;3.17;;;;;;;;;;5087762;28;20182;-74
2023/05/29 13:27:52;;;;;;;3.20;2.90;;;;;;;;;;5078628;28;20197;-75
2023/05/29 13:30:18;;;;;;;3.27;2.90;;;;;;;;;;5078197;28;20174;-74
2023/05/29 13:32:44;;;;;;;3.27;2.90;;;;;;;;;;5076090;28;20180;-75
2023/05/29 13:35:11;;;;;;;3.70;3.00;;;;;;;;;;5095345;28;20185;-75
2023/05/29 13:37:37;;;;;;;2.97;2.70;;;;;;;;;;5082154;28;20354;-75
2023/05/29 13:40:04;;;;;;;4.93;3.00;;;;;;;;;;5089797;28;20238;-75
2023/05/29 13:42:30;;;;;;;4.43;2.97;;;;;;;;;;5086532;28;20212;-75
2023/05/29 13:44:57;;;;;;;3.27;2.97;;;;;;;;;;5076564;28;20190;-75
2023/05/29 13:47:23;;;;;;;3.10;2.70;;;;;;;;;;5095498;28;20177;-75
2023/05/29 13:49:49;;;;;;;5.93;2.93;;;;;;;;;;5102521;28;20650;-75
2023/05/29 13:52:16;;;;;;;3.00;2.77;;;;;;;;;;5108722;28;20205;-75
2023/05/29 13:54:42;;;;;;;4.30;2.70;;;;;;;;;;5111608;28;20175;-75
2023/05/29 13:57:08;;;;;;;4.83;2.80;;;;;;;;;;5083183;28;20200;-75
2023/05/29 13:59:35;;;;;;;3.53;2.70;;;;;;;;;;5085265;28;20245;-75
2023/05/29 14:02:01;;;;;;;3.97;2.93;;;;;;;;;;5075986;28;20567;-75
2023/05/29 14:04:29;;;;;;;4.13;2.80;;;;;;;;;;5105748;28;20191;-75
2023/05/29 14:06:56;;;;;;;3.00;2.70;;;;;;;;;;5116413;28;20174;-75
2023/05/29 14:09:27;;;;;;;3.30;2.53;;;;;;;;;;5089667;28;20248;-75
2023/05/29 14:11:58;;;;;;;3.97;2.70;;;;;;;;;;5118048;27;20188;-76
2023/05/29 14:14:25;;;;;;;3.43;3.03;;;;;;;;;;5095508;28;20708;-76
2023/05/29 14:16:52;;;;;;;3.10;2.80;;;;;;;;;;5096345;28;20677;-76
2023/05/29 14:19:18;;;;;;;3.87;2.67;;;;;;;;;;5095503;28;20204;-76
2023/05/29 14:21:45;;;;;;;3.43;2.97;;;;;;;;;;5090340;28;20239;-76
2023/05/29 14:24:11;;;;;;;3.57;2.80;;;;;;;;;;5087832;28;20236;-75
2023/05/29 14:26:37;;;;;;;3.07;2.80;;;;;;;;;;5090968;28;20203;-75
2023/05/29 14:29:04;;;;;;;5.43;2.77;;;;;;;;;;5090326;28;20200;-75
2023/05/29 14:31:30;;;;;;;3.23;2.90;;;;;;;;;;5092030;28;20191;-75
2023/05/29 14:33:57;;;;;;;3.43;2.93;;;;;;;;;;5091417;28;20552;-75
2023/05/29 14:36:23;;;;;;;2.93;2.70;;;;;;;;;;5094225;28;20183;-75
2023/05/29 14:38:49;;;;;;;3.40;3.00;;;;;;;;;;5092135;28;20201;-75
2023/05/29 14:41:16;;;;;;;6.40;2.75;;;;;;;;;;5095404;28;20176;-75
2023/05/29 14:43:42;;;;;;;3.20;2.90;;;;;;;;;;5090434;28;20190;-75
2023/05/29 14:46:09;;;;;;;4.03;2.92;;;;;;;;;;5091840;28;20192;-75
2023/05/29 14:48:35;;;;;;;3.17;2.88;;;;;;;;;;5092288;28;20755;-75